createdAt,value
2022-12-15T00:02:20.227Z,82.65
2022-12-15T00:05:15.356Z,82.53
2022-12-15T00:08:05.421Z,82.66
2022-12-15T00:10:55.458Z,82.81
2022-12-15T00:13:45.405Z,82.67
2022-12-15T00:16:35.684Z,82.52
2022-12-15T00:19:28.015Z,82.81
2022-12-15T00:22:18.455Z,82.70
2022-12-15T00:25:08.320Z,82.58
2022-12-15T00:27:58.236Z,82.67
2022-12-15T00:30:50.024Z,82.60
2022-12-15T00:33:40.448Z,82.61
2022-12-15T00:36:30.621Z,82.63
2022-12-15T00:39:10.447Z,82.69
2022-12-15T00:41:43.336Z,82.79
2022-12-15T00:44:20.332Z,82.57
2022-12-15T00:46:56.316Z,82.65
2022-12-15T00:49:48.252Z,82.43
2022-12-15T00:52:40.270Z,82.27
2022-12-15T00:55:33.785Z,82.13
2022-12-15T00:58:26.442Z,82.53
2022-12-15T01:01:16.372Z,82.49
2022-12-15T01:04:06.313Z,82.35
2022-12-15T01:06:56.530Z,82.27
2022-12-15T01:09:46.668Z,82.23
2022-12-15T01:12:36.620Z,82.08
2022-12-15T01:15:28.153Z,81.79
2022-12-15T01:18:18.513Z,81.81
2022-12-15T01:20:59.746Z,81.98
2022-12-15T01:23:32.726Z,81.91
2022-12-15T01:26:08.930Z,81.88
2022-12-15T01:28:44.563Z,81.47
2022-12-15T01:31:17.554Z,81.63
2022-12-15T01:33:54.426Z,81.57
2022-12-15T01:36:28.850Z,81.60
2022-12-15T01:39:02.037Z,81.54
2022-12-15T01:41:34.195Z,81.33
2022-12-15T01:44:20.925Z,81.51
2022-12-15T01:46:56.626Z,81.48
2022-12-15T01:49:32.650Z,81.40
2022-12-15T01:52:16.541Z,81.18
2022-12-15T01:54:52.381Z,81.43
2022-12-15T01:57:30.194Z,81.22
2022-12-15T02:00:09.684Z,81.42
2022-12-15T02:02:45.153Z,81.08
2022-12-15T02:05:21.727Z,81.28
2022-12-15T02:07:53.939Z,81.23
2022-12-15T02:10:29.988Z,81.40
2022-12-15T02:13:11.234Z,81.22
2022-12-15T02:15:50.259Z,81.20
2022-12-15T02:18:33.525Z,81.26
2022-12-15T02:21:11.354Z,81.31
2022-12-15T02:24:11.652Z,81.23
2022-12-15T02:27:08.804Z,80.97
2022-12-15T02:30:06.995Z,80.95
2022-12-15T02:32:44.919Z,80.75
2022-12-15T02:35:23.757Z,81.06
2022-12-15T02:37:58.821Z,81.07
2022-12-15T02:40:31.240Z,80.77
2022-12-15T02:43:06.704Z,80.83
2022-12-15T02:45:47.542Z,80.67
2022-12-15T02:48:31.184Z,80.61
2022-12-15T02:51:19.985Z,80.51
2022-12-15T02:54:08.015Z,80.68
2022-12-15T02:56:50.202Z,80.78
2022-12-15T02:59:30.837Z,80.52
2022-12-15T03:02:09.443Z,80.47
2022-12-15T03:04:44.076Z,80.45
2022-12-15T03:07:17.665Z,80.17
2022-12-15T03:09:50.108Z,80.34
2022-12-15T03:12:22.266Z,80.31
2022-12-15T03:14:58.064Z,80.24
2022-12-15T03:17:30.451Z,80.15
2022-12-15T03:20:02.955Z,80.02
2022-12-15T03:22:35.178Z,80.07
2022-12-15T03:25:08.840Z,80.17
2022-12-15T03:27:45.755Z,80.17
2022-12-15T03:33:09.796Z,79.91
2022-12-15T03:35:42.375Z,79.76
2022-12-15T03:38:15.765Z,79.80
2022-12-15T03:40:48.293Z,79.59
2022-12-15T03:43:20.566Z,79.24
2022-12-15T03:45:52.908Z,79.00
2022-12-15T03:48:27.509Z,78.40
2022-12-15T03:51:02.668Z,78.43
2022-12-15T03:53:35.147Z,78.46
2022-12-15T03:56:08.054Z,78.00
2022-12-15T03:58:40.502Z,77.56
2022-12-15T04:01:29.088Z,77.76
2022-12-15T04:04:02.626Z,77.65
2022-12-15T04:06:35.004Z,77.47
2022-12-15T04:09:12.861Z,77.46
2022-12-15T04:11:44.918Z,77.73
2022-12-15T04:14:17.401Z,78.29
2022-12-15T04:16:49.596Z,78.49
2022-12-15T04:19:39.477Z,78.65
2022-12-15T04:22:14.986Z,79.06
2022-12-15T04:25:07.855Z,79.11
2022-12-15T04:28:01.538Z,79.15
2022-12-15T04:30:52.226Z,79.34
2022-12-15T04:33:45.177Z,79.24
2022-12-15T04:36:38.250Z,79.45
2022-12-15T04:39:30.962Z,79.39
2022-12-15T04:42:21.991Z,79.34
2022-12-15T04:45:20.630Z,79.53
2022-12-15T04:48:15.543Z,79.33
2022-12-15T04:51:06.681Z,79.49
2022-12-15T04:53:56.782Z,79.83
2022-12-15T04:56:46.805Z,79.89
2022-12-15T04:59:40.076Z,79.95
2022-12-15T05:02:30.635Z,80.09
2022-12-15T05:05:21.360Z,80.47
2022-12-15T05:08:11.818Z,80.57
2022-12-15T05:11:01.891Z,80.27
2022-12-15T05:13:52.649Z,80.44
2022-12-15T05:16:42.517Z,80.44
2022-12-15T05:19:35.052Z,80.69
2022-12-15T05:22:24.998Z,80.70
2022-12-15T05:25:14.597Z,81.11
2022-12-15T05:28:04.620Z,81.14
2022-12-15T05:30:55.404Z,80.75
2022-12-15T05:33:27.685Z,80.79
2022-12-15T05:36:00.358Z,80.73
2022-12-15T05:38:32.607Z,80.97
2022-12-15T05:41:05.693Z,80.93
2022-12-15T05:43:40.323Z,81.22
2022-12-15T05:46:12.619Z,81.27
2022-12-15T05:48:44.844Z,81.57
2022-12-15T05:51:17.351Z,81.63
2022-12-15T05:53:49.506Z,81.66
2022-12-15T05:56:21.675Z,81.72
2022-12-15T05:58:53.894Z,81.89
2022-12-15T06:01:26.997Z,82.36
2022-12-15T06:04:00.416Z,82.38
2022-12-15T06:06:32.607Z,82.61
2022-12-15T06:09:04.809Z,82.66
2022-12-15T06:11:39.974Z,83.05
2022-12-15T06:14:12.815Z,83.01
2022-12-15T06:16:50.958Z,83.18
2022-12-15T06:19:24.655Z,83.17
2022-12-15T06:21:56.998Z,83.24
2022-12-15T06:24:29.560Z,83.50
2022-12-15T06:27:01.924Z,83.83
2022-12-15T06:29:36.536Z,83.68
2022-12-15T06:32:11.932Z,83.51
2022-12-15T06:34:46.789Z,83.76
2022-12-15T06:37:18.881Z,83.65
2022-12-15T06:39:54.223Z,83.72
2022-12-15T06:42:26.671Z,83.60
2022-12-15T06:44:59.383Z,83.76
2022-12-15T06:47:31.825Z,83.88
2022-12-15T06:50:04.167Z,83.68
2022-12-15T06:55:24.983Z,83.87
2022-12-15T06:58:01.924Z,83.87
2022-12-15T07:00:36.781Z,83.75
2022-12-15T07:03:12.236Z,83.81
2022-12-15T07:05:44.987Z,83.89
2022-12-15T07:08:18.502Z,83.68
2022-12-15T07:10:53.237Z,83.66
2022-12-15T07:13:25.880Z,83.91
2022-12-15T07:16:01.472Z,83.95
2022-12-15T07:18:34.000Z,83.84
2022-12-15T07:21:08.004Z,83.92
2022-12-15T07:23:54.156Z,83.69
2022-12-15T07:26:27.913Z,84.04
2022-12-15T07:29:02.635Z,84.02
2022-12-15T07:31:38.229Z,83.82
2022-12-15T07:34:13.337Z,84.16
2022-12-15T07:36:51.494Z,84.00
2022-12-15T07:39:29.990Z,83.77
2022-12-15T07:42:02.887Z,84.02
2022-12-15T07:44:35.073Z,84.18
2022-12-15T07:47:08.152Z,84.30
2022-12-15T07:49:40.254Z,84.37
2022-12-15T07:52:14.101Z,84.15
2022-12-15T07:54:46.756Z,84.22
2022-12-15T07:57:19.368Z,84.01
2022-12-15T07:59:51.755Z,84.02
2022-12-15T08:02:24.180Z,84.19
2022-12-15T08:04:56.796Z,84.36
2022-12-15T08:07:28.884Z,84.15
2022-12-15T08:10:01.090Z,84.24
2022-12-15T08:12:38.377Z,83.98
2022-12-15T08:15:13.712Z,84.39
2022-12-15T08:17:47.171Z,84.36
2022-12-15T08:20:19.417Z,84.51
2022-12-15T08:22:52.594Z,84.37
2022-12-15T08:25:25.238Z,84.69
2022-12-15T08:27:57.449Z,84.61
2022-12-15T08:30:30.267Z,84.67
2022-12-15T08:33:02.360Z,84.55
2022-12-15T08:35:55.670Z,85.25
2022-12-15T08:38:26.627Z,85.24
2022-12-15T08:40:59.085Z,85.23
2022-12-15T08:43:31.576Z,85.64
2022-12-15T08:46:06.909Z,85.35
2022-12-15T08:48:39.673Z,85.50
2022-12-15T08:51:12.256Z,85.50
2022-12-15T08:53:45.107Z,85.63
2022-12-15T08:56:22.246Z,86.00
2022-12-15T08:58:59.196Z,85.99
2022-12-15T09:01:33.505Z,85.84
2022-12-15T09:04:08.935Z,86.01
2022-12-15T09:06:41.268Z,86.06
2022-12-15T09:09:15.020Z,86.05
2022-12-15T09:11:47.070Z,86.24
2022-12-15T09:14:25.500Z,85.94
2022-12-15T09:16:59.951Z,85.97
2022-12-15T09:19:35.135Z,86.20
2022-12-15T09:22:07.949Z,85.99
2022-12-15T09:24:40.493Z,86.36
2022-12-15T09:27:12.608Z,86.20
2022-12-15T09:29:44.731Z,86.39
2022-12-15T09:32:17.151Z,86.10
2022-12-15T09:34:49.385Z,86.36
2022-12-15T09:37:23.082Z,86.23
2022-12-15T09:39:55.323Z,85.97
2022-12-15T09:42:30.209Z,86.10
2022-12-15T09:45:09.091Z,86.19
2022-12-15T09:47:51.214Z,86.62
2022-12-15T09:50:34.740Z,86.19
2022-12-15T09:53:45.418Z,86.49
2022-12-15T09:56:14.792Z,86.36
2022-12-15T09:58:55.732Z,86.38
2022-12-15T10:01:37.176Z,86.05
2022-12-15T10:04:20.168Z,86.35
2022-12-15T10:06:59.885Z,86.19
2022-12-15T10:09:32.509Z,86.33
2022-12-15T10:12:08.516Z,86.26
2022-12-15T10:14:44.236Z,86.15
2022-12-15T10:17:24.240Z,86.40
2022-12-15T10:20:07.774Z,86.32
2022-12-15T10:22:40.549Z,85.95
2022-12-15T10:25:25.434Z,85.83
2022-12-15T10:28:23.160Z,86.22
2022-12-15T10:31:00.592Z,86.09
2022-12-15T10:33:36.228Z,86.09
2022-12-15T10:36:14.108Z,85.88
2022-12-15T10:38:50.711Z,86.14
2022-12-15T10:41:26.882Z,85.85
2022-12-15T10:43:59.489Z,85.86
2022-12-15T10:46:33.313Z,85.88
2022-12-15T10:49:24.724Z,85.59
2022-12-15T10:52:02.570Z,85.46
2022-12-15T10:54:44.863Z,85.59
2022-12-15T10:57:21.067Z,85.63
2022-12-15T10:59:53.566Z,85.49
2022-12-15T11:02:37.166Z,85.25
2022-12-15T11:05:21.489Z,85.32
2022-12-15T11:07:56.661Z,85.10
2022-12-15T11:10:54.502Z,85.25
2022-12-15T11:13:33.001Z,85.25
2022-12-15T11:16:18.041Z,85.29
2022-12-15T11:18:54.901Z,84.98
2022-12-15T11:21:28.986Z,84.91
2022-12-15T11:24:13.725Z,85.06
2022-12-15T11:26:56.334Z,84.90
2022-12-15T11:29:34.876Z,84.82
2022-12-15T11:32:07.820Z,84.55
2022-12-15T11:34:43.027Z,84.83
2022-12-15T11:37:36.908Z,84.66
2022-12-15T11:40:34.386Z,84.88
2022-12-15T11:43:34.299Z,84.84
2022-12-15T11:46:19.955Z,84.84
2022-12-15T11:49:14.058Z,84.91
2022-12-15T11:51:53.749Z,84.77
2022-12-15T11:54:36.522Z,85.29
2022-12-15T11:57:32.666Z,84.94
2022-12-15T12:00:10.046Z,85.09
2022-12-15T12:03:03.556Z,85.18
2022-12-15T12:05:52.477Z,84.91
2022-12-15T12:08:40.461Z,84.64
2022-12-15T12:11:15.917Z,84.65
2022-12-15T12:14:05.333Z,84.54
2022-12-15T12:16:45.497Z,84.63
2022-12-15T12:19:21.062Z,84.50
2022-12-15T12:22:00.418Z,84.31
2022-12-15T12:24:39.872Z,84.24
2022-12-15T12:27:25.536Z,84.45
2022-12-15T12:30:03.774Z,84.64
2022-12-15T12:32:45.340Z,84.29
2022-12-15T12:35:31.937Z,84.06
2022-12-15T12:38:20.319Z,84.29
2022-12-15T12:41:03.758Z,84.12
2022-12-15T12:43:37.661Z,84.08
2022-12-15T12:46:18.874Z,83.88
2022-12-15T12:48:56.238Z,83.65
2022-12-15T12:51:33.149Z,83.45
2022-12-15T12:54:26.339Z,83.82
2022-12-15T12:56:58.738Z,83.82
2022-12-15T12:59:41.818Z,83.59
2022-12-15T13:02:47.646Z,83.66
2022-12-15T13:05:34.001Z,83.59
2022-12-15T13:08:51.337Z,83.43
2022-12-15T13:12:14.994Z,83.38
2022-12-15T13:14:56.637Z,83.61
2022-12-15T13:17:41.682Z,83.66
2022-12-15T13:20:27.000Z,83.62
2022-12-15T13:23:37.532Z,83.41
2022-12-15T13:26:19.474Z,83.33
2022-12-15T13:28:58.221Z,83.32
2022-12-15T13:31:42.021Z,83.48
2022-12-15T13:34:22.676Z,83.38
2022-12-15T13:37:36.900Z,83.29
2022-12-15T13:40:42.545Z,83.37
2022-12-15T13:43:38.576Z,83.39
2022-12-15T13:46:19.580Z,83.33
2022-12-15T13:48:56.821Z,83.59
2022-12-15T13:51:35.310Z,83.28
2022-12-15T13:54:18.137Z,83.17
2022-12-15T13:56:56.851Z,82.90
2022-12-15T13:59:42.617Z,83.19
2022-12-15T14:02:29.447Z,83.15
2022-12-15T14:05:16.114Z,82.86
2022-12-15T14:07:54.767Z,83.11
2022-12-15T14:10:35.435Z,83.06
2022-12-15T14:16:19.289Z,82.87
2022-12-15T14:32:20.086Z,82.85
2022-12-15T14:34:55.413Z,82.96
2022-12-15T14:37:27.821Z,82.98
2022-12-15T14:40:00.455Z,83.21
2022-12-15T14:42:33.635Z,83.06
2022-12-15T14:45:06.869Z,83.11
2022-12-15T14:47:40.522Z,82.90
2022-12-15T14:53:18.866Z,82.63
2022-12-15T14:55:51.485Z,82.74
2022-12-15T14:58:31.453Z,82.65
2022-12-15T15:01:07.299Z,82.72
2022-12-15T15:03:40.941Z,82.67
2022-12-15T15:06:20.985Z,82.60
2022-12-15T15:08:56.884Z,82.45
2022-12-15T15:11:34.090Z,82.70
2022-12-15T15:14:13.960Z,82.44
2022-12-15T15:16:46.807Z,82.26
2022-12-15T15:19:23.577Z,82.14
2022-12-15T15:21:55.745Z,82.09
2022-12-15T15:24:35.269Z,82.05
2022-12-15T15:27:27.810Z,82.24
2022-12-15T15:30:21.001Z,82.25
2022-12-15T15:32:56.620Z,82.59
2022-12-15T15:35:35.203Z,82.56
2022-12-15T15:38:18.712Z,82.62
2022-12-15T15:40:56.892Z,82.57
2022-12-15T15:43:31.798Z,82.62
2022-12-15T15:46:07.029Z,82.63
2022-12-15T15:48:44.827Z,82.51
2022-12-15T15:51:17.529Z,82.41
2022-12-15T15:53:51.172Z,82.41
2022-12-15T15:56:23.730Z,82.07
2022-12-15T15:58:56.132Z,82.29
2022-12-15T16:01:29.086Z,82.36
2022-12-15T16:04:02.405Z,82.28
2022-12-15T16:06:35.029Z,82.19
2022-12-15T16:09:08.201Z,82.28
2022-12-15T16:11:40.874Z,82.12
2022-12-15T16:14:16.293Z,81.95
2022-12-15T16:16:48.739Z,82.09
2022-12-15T16:19:21.084Z,82.01
2022-12-15T16:21:54.526Z,81.87
2022-12-15T16:24:26.834Z,82.09
2022-12-15T16:26:59.887Z,82.02
2022-12-15T16:29:32.151Z,82.15
2022-12-15T16:32:05.619Z,82.00
2022-12-15T16:34:39.296Z,81.95
2022-12-15T16:37:25.176Z,81.89
2022-12-15T16:39:57.586Z,81.69
2022-12-15T16:42:29.721Z,81.92
2022-12-15T16:45:02.017Z,81.91
2022-12-15T16:47:34.237Z,81.83
2022-12-15T16:50:07.808Z,81.65
2022-12-15T16:52:40.112Z,81.76
2022-12-15T16:55:20.920Z,81.70
2022-12-15T16:57:55.674Z,81.78
2022-12-15T17:00:32.454Z,81.47
2022-12-15T17:03:05.819Z,81.20
2022-12-15T17:05:39.450Z,81.16
2022-12-15T17:08:19.509Z,81.17
2022-12-15T17:10:52.659Z,81.35
2022-12-15T17:13:37.772Z,81.03
2022-12-15T17:16:14.811Z,81.21
2022-12-15T17:18:47.833Z,81.29
2022-12-15T17:21:24.938Z,81.13
2022-12-15T17:24:02.273Z,81.37
2022-12-15T17:26:37.822Z,81.02
2022-12-15T17:29:15.062Z,81.06
2022-12-15T17:31:50.672Z,80.62
2022-12-15T17:34:30.372Z,80.65
2022-12-15T17:37:04.832Z,80.78
2022-12-15T17:39:38.053Z,80.74
2022-12-15T17:42:18.820Z,80.54
2022-12-15T17:44:52.631Z,80.37
2022-12-15T17:47:25.527Z,80.83
2022-12-15T17:50:00.125Z,80.34
2022-12-15T17:52:34.829Z,80.70
2022-12-15T17:55:19.920Z,80.67
2022-12-15T17:57:55.931Z,80.51
2022-12-15T18:00:30.574Z,80.54
2022-12-15T18:03:03.585Z,80.71
2022-12-15T18:05:36.494Z,80.60
2022-12-15T18:08:16.545Z,80.78
2022-12-15T18:10:51.077Z,80.54
2022-12-15T18:13:26.922Z,80.66
2022-12-15T18:16:01.803Z,80.48
2022-12-15T18:18:35.060Z,80.26
2022-12-15T18:21:15.614Z,80.40
2022-12-15T18:23:48.479Z,80.33
2022-12-15T18:26:21.402Z,80.34
2022-12-15T18:28:53.685Z,80.47
2022-12-15T18:31:28.202Z,80.06
2022-12-15T18:34:04.350Z,80.28
2022-12-15T18:36:37.276Z,80.36
2022-12-15T18:39:20.059Z,80.20
2022-12-15T18:44:46.485Z,80.35
2022-12-15T18:47:20.749Z,80.39
2022-12-15T18:49:53.111Z,80.43
2022-12-15T18:52:32.983Z,80.34
2022-12-15T18:55:15.927Z,80.36
2022-12-15T18:57:48.805Z,80.55
2022-12-15T19:00:28.288Z,80.46
2022-12-15T19:03:01.429Z,80.37
2022-12-15T19:05:33.796Z,80.30
2022-12-15T19:08:13.356Z,80.10
2022-12-15T19:10:52.572Z,80.21
2022-12-15T19:13:26.538Z,80.49
2022-12-15T19:15:59.116Z,80.34
2022-12-15T19:18:45.383Z,80.15
2022-12-15T19:21:38.753Z,80.40
2022-12-15T19:24:15.926Z,80.31
2022-12-15T19:26:48.344Z,80.21
2022-12-15T19:29:22.690Z,80.09
2022-12-15T19:31:55.037Z,80.34
2022-12-15T19:34:27.959Z,80.13
2022-12-15T19:37:02.076Z,80.21
2022-12-15T19:39:35.409Z,80.19
2022-12-15T19:42:15.217Z,80.14
2022-12-15T19:44:47.396Z,79.94
2022-12-15T19:47:19.883Z,80.22
2022-12-15T19:49:52.938Z,79.98
2022-12-15T19:52:30.102Z,80.13
2022-12-15T19:55:05.415Z,80.17
2022-12-15T19:57:37.667Z,80.24
2022-12-15T20:00:17.899Z,79.98
2022-12-15T20:02:54.362Z,80.12
2022-12-15T20:05:28.221Z,80.10
2022-12-15T20:08:00.705Z,80.06
2022-12-15T20:10:33.720Z,80.06
2022-12-15T20:13:07.629Z,80.03
2022-12-15T20:15:39.768Z,80.13
2022-12-15T20:18:12.802Z,80.16
2022-12-15T20:20:50.623Z,79.86
2022-12-15T20:23:26.870Z,80.07
2022-12-15T20:28:47.715Z,80.00
2022-12-15T20:31:24.424Z,79.96
2022-12-15T20:33:57.112Z,79.98
2022-12-15T20:36:33.235Z,80.13
2022-12-15T20:39:05.685Z,80.06
2022-12-15T20:41:38.271Z,79.89
2022-12-15T20:44:15.596Z,80.01
2022-12-15T20:46:47.931Z,79.89
2022-12-15T20:49:24.892Z,79.97
2022-12-15T20:51:57.141Z,80.03
2022-12-15T20:54:29.292Z,79.75
2022-12-15T20:57:01.821Z,79.86
2022-12-15T20:59:34.162Z,79.84
2022-12-15T21:02:19.215Z,79.69
2022-12-15T21:04:52.556Z,79.42
2022-12-15T21:07:25.399Z,79.69
2022-12-15T21:09:57.976Z,79.54
2022-12-15T21:12:32.558Z,79.63
2022-12-15T21:15:08.087Z,79.69
2022-12-15T21:17:44.091Z,79.71
2022-12-15T21:20:16.818Z,79.65
2022-12-15T21:22:50.457Z,79.81
2022-12-15T21:25:27.603Z,79.83
2022-12-15T21:28:02.744Z,79.91
2022-12-15T21:30:36.010Z,79.86
2022-12-15T21:33:09.153Z,79.70
2022-12-15T21:35:42.366Z,79.84
2022-12-15T21:38:35.951Z,80.03
2022-12-15T21:41:13.922Z,79.95
2022-12-15T21:43:49.358Z,80.14
2022-12-15T21:46:27.858Z,80.16
2022-12-15T21:49:20.187Z,80.19
2022-12-15T21:51:55.720Z,80.20
2022-12-15T21:54:32.104Z,79.92
2022-12-15T21:57:04.538Z,80.27
2022-12-15T21:59:36.610Z,80.21
2022-12-15T22:02:26.618Z,80.09
2022-12-15T22:04:59.590Z,80.06
2022-12-15T22:07:31.849Z,79.98
2022-12-15T22:10:04.635Z,79.81
2022-12-15T22:12:36.787Z,79.85
2022-12-15T22:15:16.760Z,79.83
2022-12-15T22:17:49.790Z,79.94
2022-12-15T22:20:25.242Z,79.71
2022-12-15T22:22:57.593Z,79.74
2022-12-15T22:25:29.980Z,79.52
2022-12-15T22:28:04.923Z,79.57
2022-12-15T22:30:38.561Z,79.45
2022-12-15T22:33:21.717Z,79.43
2022-12-15T22:35:57.807Z,79.37
2022-12-15T22:38:30.502Z,79.25
2022-12-15T22:41:04.900Z,79.16
2022-12-15T22:43:39.885Z,79.06
2022-12-15T22:46:15.257Z,79.19
2022-12-15T22:48:48.792Z,79.40
2022-12-15T22:51:24.025Z,79.15
2022-12-15T22:53:56.264Z,78.96
2022-12-15T22:56:31.829Z,79.20
2022-12-15T22:59:08.891Z,79.23
2022-12-15T23:01:41.547Z,78.85
2022-12-15T23:04:17.157Z,78.86
2022-12-15T23:06:49.799Z,79.09
2022-12-15T23:09:23.874Z,79.18
2022-12-15T23:11:56.324Z,78.97
2022-12-15T23:14:49.213Z,79.20
2022-12-15T23:17:22.031Z,79.04
2022-12-15T23:19:54.503Z,79.15
2022-12-15T23:25:17.110Z,79.19
2022-12-15T23:27:49.643Z,79.06
2022-12-15T23:30:23.119Z,79.03
2022-12-15T23:32:55.599Z,79.48
2022-12-15T23:35:28.052Z,79.46
2022-12-15T23:38:01.297Z,79.57
2022-12-15T23:40:33.471Z,79.60
2022-12-15T23:43:07.951Z,79.40
2022-12-15T23:45:41.043Z,79.32
2022-12-15T23:48:15.184Z,79.25
2022-12-15T23:50:48.088Z,79.72
2022-12-15T23:53:20.718Z,79.54
2022-12-15T23:55:54.924Z,79.47
2022-12-15T23:58:28.183Z,79.72
